sensor_id;sensor_type;location;lat;lon;timestamp;P1;durP1;ratioP1;P2;durP2;ratioP2
2884;SDS011;54691;48.262;11.586;2022-12-11T00:06:32;35.63;;;11.40;;
2884;SDS011;54691;48.262;11.586;2022-12-11T00:13:29;28.15;;;10.40;;
2884;SDS011;54691;48.262;11.586;2022-12-11T00:20:26;23.42;;;8.55;;
2884;SDS011;54691;48.262;11.586;2022-12-11T00:27:23;22.98;;;7.70;;
2884;SDS011;54691;48.262;11.586;2022-12-11T00:34:20;17.85;;;7.55;;
2884;SDS011;54691;48.262;11.586;2022-12-11T00:41:17;17.57;;;6.90;;
2884;SDS011;54691;48.262;11.586;2022-12-11T00:48:14;29.98;;;10.95;;
2884;SDS011;54691;48.262;11.586;2022-12-11T00:55:11;30.70;;;9.95;;
2884;SDS011;54691;48.262;11.586;2022-12-11T01:02:09;29.12;;;10.53;;
2884;SDS011;54691;48.262;11.586;2022-12-11T01:09:06;27.37;;;8.40;;
2884;SDS011;54691;48.262;11.586;2022-12-11T01:12:59;25.40;;;9.43;;
2884;SDS011;54691;48.262;11.586;2022-12-11T01:19:54;25.02;;;9.35;;
2884;SDS011;54691;48.262;11.586;2022-12-11T01:26:51;19.05;;;7.35;;
2884;SDS011;54691;48.262;11.586;2022-12-11T01:33:52;25.17;;;9.10;;
2884;SDS011;54691;48.262;11.586;2022-12-11T01:40:49;25.88;;;9.55;;
2884;SDS011;54691;48.262;11.586;2022-12-11T01:47:49;23.77;;;8.00;;
2884;SDS011;54691;48.262;11.586;2022-12-11T01:54:47;21.05;;;8.55;;
2884;SDS011;54691;48.262;11.586;2022-12-11T02:01:55;26.37;;;8.85;;
2884;SDS011;54691;48.262;11.586;2022-12-11T02:08:47;22.67;;;7.10;;
2884;SDS011;54691;48.262;11.586;2022-12-11T02:15:49;18.45;;;6.53;;
2884;SDS011;54691;48.262;11.586;2022-12-11T02:26:33;17.73;;;7.22;;
2884;SDS011;54691;48.262;11.586;2022-12-11T02:33:33;22.15;;;8.20;;
2884;SDS011;54691;48.262;11.586;2022-12-11T02:40:29;20.72;;;7.05;;
2884;SDS011;54691;48.262;11.586;2022-12-11T02:47:27;9.65;;;4.65;;
2884;SDS011;54691;48.262;11.586;2022-12-11T02:54:26;16.02;;;5.78;;
2884;SDS011;54691;48.262;11.586;2022-12-11T03:01:24;16.40;;;6.53;;
2884;SDS011;54691;48.262;11.586;2022-12-11T03:08:21;9.28;;;3.58;;
2884;SDS011;54691;48.262;11.586;2022-12-11T03:15:18;11.08;;;4.40;;
2884;SDS011;54691;48.262;11.586;2022-12-11T03:26:03;11.30;;;4.40;;
2884;SDS011;54691;48.262;11.586;2022-12-11T03:33:08;13.90;;;5.85;;
2884;SDS011;54691;48.262;11.586;2022-12-11T03:40:02;16.50;;;6.35;;
2884;SDS011;54691;48.262;11.586;2022-12-11T03:46:59;15.03;;;4.22;;
2884;SDS011;54691;48.262;11.586;2022-12-11T03:53:56;14.73;;;6.08;;
2884;SDS011;54691;48.262;11.586;2022-12-11T04:00:54;15.43;;;5.70;;
2884;SDS011;54691;48.262;11.586;2022-12-11T04:07:51;12.93;;;5.33;;
2884;SDS011;54691;48.262;11.586;2022-12-11T04:15:03;14.95;;;5.80;;
2884;SDS011;54691;48.262;11.586;2022-12-11T04:22:18;17.23;;;5.90;;
2884;SDS011;54691;48.262;11.586;2022-12-11T04:26:05;18.48;;;5.75;;
2884;SDS011;54691;48.262;11.586;2022-12-11T04:33:02;14.38;;;4.33;;
2884;SDS011;54691;48.262;11.586;2022-12-11T04:39:59;13.03;;;5.25;;
2884;SDS011;54691;48.262;11.586;2022-12-11T04:46:56;11.60;;;4.17;;
2884;SDS011;54691;48.262;11.586;2022-12-11T04:53:53;10.55;;;3.95;;
2884;SDS011;54691;48.262;11.586;2022-12-11T05:00:50;8.70;;;3.52;;
2884;SDS011;54691;48.262;11.586;2022-12-11T05:07:47;9.90;;;3.40;;
2884;SDS011;54691;48.262;11.586;2022-12-11T05:14:45;14.43;;;6.15;;
2884;SDS011;54691;48.262;11.586;2022-12-11T05:21:42;15.00;;;5.10;;
2884;SDS011;54691;48.262;11.586;2022-12-11T05:28:39;14.05;;;6.03;;
2884;SDS011;54691;48.262;11.586;2022-12-11T05:35:36;14.43;;;5.45;;
2884;SDS011;54691;48.262;11.586;2022-12-11T05:42:33;15.08;;;6.30;;
2884;SDS011;54691;48.262;11.586;2022-12-11T05:49:30;16.40;;;5.65;;
2884;SDS011;54691;48.262;11.586;2022-12-11T05:56:28;14.73;;;6.40;;
2884;SDS011;54691;48.262;11.586;2022-12-11T06:03:26;13.58;;;5.35;;
2884;SDS011;54691;48.262;11.586;2022-12-11T06:10:23;14.60;;;6.33;;
2884;SDS011;54691;48.262;11.586;2022-12-11T06:17:20;14.93;;;5.58;;
2884;SDS011;54691;48.262;11.586;2022-12-11T06:24:17;17.87;;;6.58;;
2884;SDS011;54691;48.262;11.586;2022-12-11T06:31:14;10.95;;;4.75;;
2884;SDS011;54691;48.262;11.586;2022-12-11T06:38:11;18.30;;;7.65;;
2884;SDS011;54691;48.262;11.586;2022-12-11T06:45:08;22.65;;;8.63;;
2884;SDS011;54691;48.262;11.586;2022-12-11T06:52:05;17.87;;;6.45;;
2884;SDS011;54691;48.262;11.586;2022-12-11T06:59:02;18.87;;;7.05;;
2884;SDS011;54691;48.262;11.586;2022-12-11T07:06:02;20.88;;;7.37;;
2884;SDS011;54691;48.262;11.586;2022-12-11T07:12:59;19.90;;;8.00;;
2884;SDS011;54691;48.262;11.586;2022-12-11T07:19:56;17.23;;;6.67;;
2884;SDS011;54691;48.262;11.586;2022-12-11T07:26:53;21.25;;;7.85;;
2884;SDS011;54691;48.262;11.586;2022-12-11T07:33:53;19.48;;;7.78;;
2884;SDS011;54691;48.262;11.586;2022-12-11T07:40:51;20.02;;;7.05;;
2884;SDS011;54691;48.262;11.586;2022-12-11T07:47:48;25.75;;;8.58;;
2884;SDS011;54691;48.262;11.586;2022-12-11T07:54:45;22.82;;;7.90;;
2884;SDS011;54691;48.262;11.586;2022-12-11T08:01:42;22.20;;;7.05;;
2884;SDS011;54691;48.262;11.586;2022-12-11T08:08:39;26.17;;;9.00;;
2884;SDS011;54691;48.262;11.586;2022-12-11T08:15:37;23.75;;;8.23;;
2884;SDS011;54691;48.262;11.586;2022-12-11T08:22:34;17.30;;;7.67;;
2884;SDS011;54691;48.262;11.586;2022-12-11T08:29:33;14.13;;;5.78;;
2884;SDS011;54691;48.262;11.586;2022-12-11T08:36:33;19.37;;;6.70;;
2884;SDS011;54691;48.262;11.586;2022-12-11T08:43:30;18.92;;;7.55;;
2884;SDS011;54691;48.262;11.586;2022-12-11T08:50:29;19.27;;;7.40;;
2884;SDS011;54691;48.262;11.586;2022-12-11T08:57:31;19.25;;;8.13;;
2884;SDS011;54691;48.262;11.586;2022-12-11T09:04:24;19.62;;;7.30;;
2884;SDS011;54691;48.262;11.586;2022-12-11T09:11:23;20.40;;;8.75;;
2884;SDS011;54691;48.262;11.586;2022-12-11T09:18:20;12.63;;;5.40;;
2884;SDS011;54691;48.262;11.586;2022-12-11T09:25:19;17.27;;;7.45;;
2884;SDS011;54691;48.262;11.586;2022-12-11T09:32:18;15.05;;;6.90;;
2884;SDS011;54691;48.262;11.586;2022-12-11T09:39:16;19.90;;;7.22;;
2884;SDS011;54691;48.262;11.586;2022-12-11T09:46:14;16.70;;;7.37;;
2884;SDS011;54691;48.262;11.586;2022-12-11T09:53:12;11.83;;;5.17;;
2884;SDS011;54691;48.262;11.586;2022-12-11T10:07:10;12.80;;;4.78;;
2884;SDS011;54691;48.262;11.586;2022-12-11T10:14:25;16.80;;;6.35;;
2884;SDS011;54691;48.262;11.586;2022-12-11T10:17:53;14.80;;;5.78;;
2884;SDS011;54691;48.262;11.586;2022-12-11T10:25:00;12.53;;;6.33;;
2884;SDS011;54691;48.262;11.586;2022-12-11T10:28:29;19.60;;;7.50;;
2884;SDS011;54691;48.262;11.586;2022-12-11T10:35:34;14.28;;;5.67;;
2884;SDS011;54691;48.262;11.586;2022-12-11T10:39:09;8.80;;;4.70;;
2884;SDS011;54691;48.262;11.586;2022-12-11T10:46:02;9.15;;;4.40;;
2884;SDS011;54691;48.262;11.586;2022-12-11T10:52:59;8.60;;;3.95;;
2884;SDS011;54691;48.262;11.586;2022-12-11T11:00:00;6.85;;;3.83;;
2884;SDS011;54691;48.262;11.586;2022-12-11T11:07:02;7.10;;;3.42;;
2884;SDS011;54691;48.262;11.586;2022-12-11T11:14:19;6.20;;;2.58;;
2884;SDS011;54691;48.262;11.586;2022-12-11T11:17:49;4.12;;;2.12;;
2884;SDS011;54691;48.262;11.586;2022-12-11T11:28:25;9.05;;;4.42;;
2884;SDS011;54691;48.262;11.586;2022-12-11T11:42:44;7.53;;;4.05;;
2884;SDS011;54691;48.262;11.586;2022-12-11T11:49:43;10.10;;;4.37;;
2884;SDS011;54691;48.262;11.586;2022-12-11T11:56:39;9.50;;;4.35;;
2884;SDS011;54691;48.262;11.586;2022-12-11T12:03:39;14.65;;;5.90;;
2884;SDS011;54691;48.262;11.586;2022-12-11T12:17:45;13.48;;;5.42;;
2884;SDS011;54691;48.262;11.586;2022-12-11T12:24:58;10.75;;;4.87;;
2884;SDS011;54691;48.262;11.586;2022-12-11T12:35:34;6.45;;;3.15;;
2884;SDS011;54691;48.262;11.586;2022-12-11T12:56:34;8.90;;;3.77;;
2884;SDS011;54691;48.262;11.586;2022-12-11T13:03:34;8.40;;;2.87;;
2884;SDS011;54691;48.262;11.586;2022-12-11T13:10:34;5.15;;;2.62;;
2884;SDS011;54691;48.262;11.586;2022-12-11T13:17:36;5.62;;;2.98;;
2884;SDS011;54691;48.262;11.586;2022-12-11T13:24:44;10.20;;;3.22;;
2884;SDS011;54691;48.262;11.586;2022-12-11T13:42:04;13.00;;;5.92;;
2884;SDS011;54691;48.262;11.586;2022-12-11T13:49:02;10.40;;;4.45;;
2884;SDS011;54691;48.262;11.586;2022-12-11T13:56:05;15.78;;;3.42;;
2884;SDS011;54691;48.262;11.586;2022-12-11T14:06:30;7.85;;;3.45;;
2884;SDS011;54691;48.262;11.586;2022-12-11T14:13:35;7.83;;;3.27;;
2884;SDS011;54691;48.262;11.586;2022-12-11T14:17:05;9.50;;;3.50;;
2884;SDS011;54691;48.262;11.586;2022-12-11T14:24:03;6.47;;;3.25;;
2884;SDS011;54691;48.262;11.586;2022-12-11T14:31:01;9.13;;;3.42;;
2884;SDS011;54691;48.262;11.586;2022-12-11T14:37:59;9.55;;;4.17;;
2884;SDS011;54691;48.262;11.586;2022-12-11T14:45:08;11.10;;;4.47;;
2884;SDS011;54691;48.262;11.586;2022-12-11T14:51:56;10.80;;;4.85;;
2884;SDS011;54691;48.262;11.586;2022-12-11T14:58:59;12.70;;;3.95;;
2884;SDS011;54691;48.262;11.586;2022-12-11T15:20:06;14.40;;;5.83;;
2884;SDS011;54691;48.262;11.586;2022-12-11T15:27:04;9.93;;;4.58;;
2884;SDS011;54691;48.262;11.586;2022-12-11T15:34:19;7.87;;;3.60;;
2884;SDS011;54691;48.262;11.586;2022-12-11T15:41:14;8.28;;;3.50;;
2884;SDS011;54691;48.262;11.586;2022-12-11T15:44:45;7.50;;;3.60;;
2884;SDS011;54691;48.262;11.586;2022-12-11T15:51:45;7.72;;;3.45;;
2884;SDS011;54691;48.262;11.586;2022-12-11T15:58:46;9.35;;;4.37;;
2884;SDS011;54691;48.262;11.586;2022-12-11T16:05:47;7.05;;;3.90;;
2884;SDS011;54691;48.262;11.586;2022-12-11T16:12:44;10.35;;;4.35;;
2884;SDS011;54691;48.262;11.586;2022-12-11T16:19:42;16.02;;;5.90;;
2884;SDS011;54691;48.262;11.586;2022-12-11T16:26:39;17.15;;;6.65;;
2884;SDS011;54691;48.262;11.586;2022-12-11T16:33:39;14.90;;;5.40;;
2884;SDS011;54691;48.262;11.586;2022-12-11T16:40:41;15.70;;;5.97;;
2884;SDS011;54691;48.262;11.586;2022-12-11T16:47:42;16.25;;;5.95;;
2884;SDS011;54691;48.262;11.586;2022-12-11T16:51:21;11.45;;;5.10;;
2884;SDS011;54691;48.262;11.586;2022-12-11T16:58:20;13.68;;;5.40;;
2884;SDS011;54691;48.262;11.586;2022-12-11T17:05:18;14.90;;;5.97;;
2884;SDS011;54691;48.262;11.586;2022-12-11T17:12:15;15.25;;;5.62;;
2884;SDS011;54691;48.262;11.586;2022-12-11T17:19:18;14.45;;;4.28;;
2884;SDS011;54691;48.262;11.586;2022-12-11T17:23:07;13.75;;;5.53;;
2884;SDS011;54691;48.262;11.586;2022-12-11T17:30:07;13.22;;;5.80;;
2884;SDS011;54691;48.262;11.586;2022-12-11T17:37:04;6.08;;;2.87;;
2884;SDS011;54691;48.262;11.586;2022-12-11T17:44:04;18.20;;;6.95;;
2884;SDS011;54691;48.262;11.586;2022-12-11T17:54:37;18.92;;;6.37;;
2884;SDS011;54691;48.262;11.586;2022-12-11T18:01:38;9.50;;;4.05;;
2884;SDS011;54691;48.262;11.586;2022-12-11T18:08:40;13.75;;;4.42;;
2884;SDS011;54691;48.262;11.586;2022-12-11T18:22:55;11.60;;;5.28;;
2884;SDS011;54691;48.262;11.586;2022-12-11T18:30:00;5.80;;;3.05;;
2884;SDS011;54691;48.262;11.586;2022-12-11T18:36:59;12.15;;;4.45;;
2884;SDS011;54691;48.262;11.586;2022-12-11T18:43:56;16.05;;;5.03;;
2884;SDS011;54691;48.262;11.586;2022-12-11T18:50:54;6.00;;;2.25;;
2884;SDS011;54691;48.262;11.586;2022-12-11T18:57:52;9.08;;;4.42;;
2884;SDS011;54691;48.262;11.586;2022-12-11T19:04:52;7.20;;;2.75;;
2884;SDS011;54691;48.262;11.586;2022-12-11T19:11:50;3.42;;;1.75;;
2884;SDS011;54691;48.262;11.586;2022-12-11T19:22:22;3.92;;;1.95;;
2884;SDS011;54691;48.262;11.586;2022-12-11T19:29:24;6.53;;;1.52;;
2884;SDS011;54691;48.262;11.586;2022-12-11T19:36:25;7.95;;;2.70;;
2884;SDS011;54691;48.262;11.586;2022-12-11T19:43:23;3.25;;;1.45;;
2884;SDS011;54691;48.262;11.586;2022-12-11T19:53:59;2.40;;;0.80;;
2884;SDS011;54691;48.262;11.586;2022-12-11T20:04:28;4.90;;;2.17;;
2884;SDS011;54691;48.262;11.586;2022-12-11T20:11:28;7.75;;;3.12;;
2884;SDS011;54691;48.262;11.586;2022-12-11T20:15:04;1.30;;;0.70;;
2884;SDS011;54691;48.262;11.586;2022-12-11T20:18:37;5.10;;;2.22;;
2884;SDS011;54691;48.262;11.586;2022-12-11T20:25:37;0.20;;;0.20;;
2884;SDS011;54691;48.262;11.586;2022-12-11T20:32:37;0.95;;;0.70;;
2884;SDS011;54691;48.262;11.586;2022-12-11T20:39:34;2.40;;;1.00;;
2884;SDS011;54691;48.262;11.586;2022-12-11T20:46:31;2.65;;;1.20;;
2884;SDS011;54691;48.262;11.586;2022-12-11T20:53:30;1.42;;;0.70;;
2884;SDS011;54691;48.262;11.586;2022-12-11T21:04:07;2.70;;;0.93;;
2884;SDS011;54691;48.262;11.586;2022-12-11T21:11:04;1.92;;;0.98;;
2884;SDS011;54691;48.262;11.586;2022-12-11T21:18:01;4.78;;;2.10;;
2884;SDS011;54691;48.262;11.586;2022-12-11T21:24:58;4.95;;;1.30;;
2884;SDS011;54691;48.262;11.586;2022-12-11T21:31:55;7.08;;;2.45;;
2884;SDS011;54691;48.262;11.586;2022-12-11T21:38:53;3.70;;;1.67;;
2884;SDS011;54691;48.262;11.586;2022-12-11T21:45:50;11.60;;;3.10;;
2884;SDS011;54691;48.262;11.586;2022-12-11T21:52:47;11.85;;;5.37;;
2884;SDS011;54691;48.262;11.586;2022-12-11T21:59:47;10.55;;;3.80;;
2884;SDS011;54691;48.262;11.586;2022-12-11T22:06:44;7.25;;;3.58;;
2884;SDS011;54691;48.262;11.586;2022-12-11T22:13:41;14.10;;;5.42;;
2884;SDS011;54691;48.262;11.586;2022-12-11T22:20:41;12.60;;;3.67;;
2884;SDS011;54691;48.262;11.586;2022-12-11T22:27:39;10.80;;;3.87;;
2884;SDS011;54691;48.262;11.586;2022-12-11T22:34:36;9.58;;;4.25;;
2884;SDS011;54691;48.262;11.586;2022-12-11T22:41:34;13.40;;;5.05;;
2884;SDS011;54691;48.262;11.586;2022-12-11T22:48:33;11.78;;;4.87;;
2884;SDS011;54691;48.262;11.586;2022-12-11T22:55:30;12.70;;;4.33;;
2884;SDS011;54691;48.262;11.586;2022-12-11T23:02:27;10.85;;;5.22;;
2884;SDS011;54691;48.262;11.586;2022-12-11T23:09:24;11.45;;;4.10;;
2884;SDS011;54691;48.262;11.586;2022-12-11T23:16:22;13.78;;;5.03;;
2884;SDS011;54691;48.262;11.586;2022-12-11T23:23:22;12.65;;;5.37;;
2884;SDS011;54691;48.262;11.586;2022-12-11T23:30:19;1.27;;;0.88;;
2884;SDS011;54691;48.262;11.586;2022-12-11T23:37:16;2.40;;;1.20;;
2884;SDS011;54691;48.262;11.586;2022-12-11T23:44:13;4.55;;;2.40;;
2884;SDS011;54691;48.262;11.586;2022-12-11T23:51:11;5.62;;;2.22;;
2884;SDS011;54691;48.262;11.586;2022-12-11T23:58:09;3.27;;;1.60;;
